Ocotillo, California
Current Conditions -  °F | °C
As of 2:56 PM on Tuesday 27 Jan 2015 (Local Time) from KNJK Reporting Station
Broken Clouds Broken Clouds  
Wind Chill: 66°   Ceiling: 3000
Heat Index: 66°   Visibility: 10mi
Dew Point: 54°   Wind: 0mph
Humidity: 65%   Direction: NA
Pressure: 30.17"   Gusts: NA
Location:  32.74°N, 115.99°W
Report Text: KNJK 272256Z 00000KT 10SM FEW025 BKN030 BKN060 19/12 A3017 RMK AO2 SLP232 T01890122 $
Loading
Personal Weather Stations






























Interactive Weather Map New forecast layout! Learn more

10-Day Weather Forecast

Advertisements
Track Severe Weather on mobile